createdAt,value
2023-02-25T00:01:57.686Z,4.53
2023-02-25T00:04:31.474Z,3.20
2023-02-25T00:06:59.683Z,4.90
2023-02-25T00:09:29.246Z,3.50
2023-02-25T00:11:57.607Z,4.33
2023-02-25T00:14:25.779Z,4.43
2023-02-25T00:16:55.839Z,3.77
2023-02-25T00:19:24.220Z,4.00
2023-02-25T00:21:52.637Z,4.27
2023-02-25T00:24:20.773Z,3.43
2023-02-25T00:26:50.321Z,3.30
2023-02-25T00:29:18.524Z,3.90
2023-02-25T00:31:46.958Z,3.57
2023-02-25T00:34:15.263Z,4.37
2023-02-25T00:36:43.421Z,4.33
2023-02-25T00:39:11.683Z,3.00
2023-02-25T00:41:39.909Z,3.90
2023-02-25T00:44:09.789Z,3.33
2023-02-25T00:46:37.944Z,4.27
2023-02-25T00:49:06.125Z,3.57
2023-02-25T00:51:34.683Z,3.07
2023-02-25T00:54:02.823Z,3.57
2023-02-25T00:56:31.055Z,3.83
2023-02-25T00:58:59.216Z,3.53
2023-02-25T01:01:30.150Z,3.57
2023-02-25T01:03:59.135Z,3.60
2023-02-25T01:06:28.334Z,3.60
2023-02-25T01:08:56.710Z,3.23
2023-02-25T01:11:27.548Z,3.80
2023-02-25T01:13:56.013Z,3.20
2023-02-25T01:16:26.253Z,3.37
2023-02-25T01:18:56.373Z,4.17
2023-02-25T01:21:27.125Z,3.07
2023-02-25T01:23:58.548Z,3.13
2023-02-25T01:26:26.831Z,3.60
2023-02-25T01:28:55.804Z,3.23
2023-02-25T01:31:29.077Z,4.00
2023-02-25T01:34:00.201Z,4.33
2023-02-25T01:36:28.552Z,3.90
2023-02-25T01:38:57.007Z,4.07
2023-02-25T01:41:25.441Z,3.50
2023-02-25T01:44:17.832Z,2.93
2023-02-25T01:46:47.259Z,3.40
2023-02-25T01:49:18.388Z,3.27
2023-02-25T01:51:47.722Z,4.00
2023-02-25T01:54:16.300Z,3.50
2023-02-25T01:56:48.131Z,3.30
2023-02-25T01:59:16.624Z,3.37
2023-02-25T02:01:45.361Z,3.43
2023-02-25T02:04:15.890Z,3.20
2023-02-25T02:06:46.323Z,3.83
2023-02-25T02:09:15.338Z,3.37
2023-02-25T02:11:44.038Z,3.30
2023-02-25T02:14:13.427Z,3.30
2023-02-25T02:16:58.545Z,4.37
2023-02-25T02:19:33.329Z,3.20
2023-02-25T02:22:07.073Z,3.60
2023-02-25T02:24:52.950Z,3.30
2023-02-25T02:27:25.218Z,3.50
2023-02-25T02:30:14.111Z,3.63
2023-02-25T02:32:47.992Z,2.93
2023-02-25T02:35:21.179Z,3.90
2023-02-25T02:37:54.940Z,3.40
2023-02-25T02:40:28.092Z,3.20
2023-02-25T02:43:01.558Z,2.87
2023-02-25T02:45:35.195Z,3.67
2023-02-25T02:48:07.321Z,3.30
2023-02-25T02:50:37.306Z,2.87
2023-02-25T02:53:08.709Z,2.67
2023-02-25T02:55:39.082Z,3.00
2023-02-25T02:58:09.513Z,4.07
2023-02-25T03:00:40.369Z,2.63
2023-02-25T03:03:12.236Z,2.43
2023-02-25T03:05:41.480Z,3.67
2023-02-25T03:08:11.924Z,2.40
2023-02-25T03:10:40.197Z,2.67
2023-02-25T03:13:08.338Z,3.37
2023-02-25T03:15:37.246Z,2.70
2023-02-25T03:18:07.053Z,2.47
2023-02-25T03:20:39.059Z,2.27
2023-02-25T03:23:09.446Z,2.67
2023-02-25T03:25:47.309Z,3.30
2023-02-25T03:28:20.644Z,2.57
2023-02-25T03:30:50.411Z,2.90
2023-02-25T03:33:21.929Z,2.60
2023-02-25T03:35:53.176Z,2.93
2023-02-25T03:38:22.209Z,2.60
2023-02-25T03:40:51.205Z,3.83
2023-02-25T03:43:20.671Z,3.10
2023-02-25T03:45:48.917Z,3.63
2023-02-25T03:48:19.094Z,3.37
2023-02-25T03:50:49.717Z,3.03
2023-02-25T03:53:19.226Z,2.37
2023-02-25T03:55:47.534Z,3.23
2023-02-25T03:58:15.719Z,3.10
2023-02-25T04:00:45.490Z,3.13
2023-02-25T04:03:13.678Z,3.57
2023-02-25T04:05:41.820Z,3.47
2023-02-25T04:08:16.083Z,4.10
2023-02-25T04:10:46.285Z,3.73
2023-02-25T04:13:15.735Z,3.47
2023-02-25T04:15:44.288Z,3.07
2023-02-25T04:18:13.186Z,3.73
2023-02-25T04:20:41.834Z,4.83
2023-02-25T04:23:13.313Z,3.77
2023-02-25T04:25:41.664Z,3.83
2023-02-25T04:28:11.248Z,3.70
2023-02-25T04:30:39.665Z,3.23
2023-02-25T04:33:07.853Z,3.43
2023-02-25T04:35:36.016Z,3.40
2023-02-25T04:38:04.248Z,4.00
2023-02-25T04:40:32.387Z,3.33
2023-02-25T04:43:00.699Z,2.97
2023-02-25T04:45:30.261Z,3.73
2023-02-25T04:47:58.671Z,3.23
2023-02-25T04:50:27.069Z,3.90
2023-02-25T04:52:55.310Z,3.83
2023-02-25T04:55:23.458Z,3.47
2023-02-25T04:57:51.626Z,3.50
2023-02-25T05:00:21.280Z,3.17
2023-02-25T05:02:50.797Z,2.87
2023-02-25T05:05:19.117Z,4.20
2023-02-25T05:07:47.582Z,3.53
2023-02-25T05:10:15.978Z,2.90
2023-02-25T05:12:44.152Z,3.87
2023-02-25T05:15:12.720Z,3.00
2023-02-25T05:17:40.874Z,3.13
2023-02-25T05:20:12.944Z,3.23
2023-02-25T05:22:41.511Z,3.67
2023-02-25T05:25:11.095Z,2.77
2023-02-25T05:27:39.253Z,2.90
2023-02-25T05:30:08.182Z,2.70
2023-02-25T05:32:36.995Z,3.60
2023-02-25T05:35:05.359Z,3.20
2023-02-25T05:37:34.850Z,3.03
2023-02-25T05:40:03.369Z,2.97
2023-02-25T05:42:31.650Z,3.20
2023-02-25T05:44:59.829Z,3.00
2023-02-25T05:47:28.351Z,4.13
2023-02-25T05:49:56.495Z,3.03
2023-02-25T05:52:24.643Z,2.97
2023-02-25T05:54:54.154Z,3.07
2023-02-25T05:57:24.017Z,3.40
2023-02-25T05:59:52.288Z,2.97
2023-02-25T06:02:20.533Z,2.97
2023-02-25T06:04:48.966Z,3.53
2023-02-25T06:07:17.105Z,3.17
2023-02-25T06:09:45.668Z,3.60
2023-02-25T06:12:15.159Z,3.47
2023-02-25T06:14:43.317Z,3.03
2023-02-25T06:17:11.818Z,3.03
2023-02-25T06:19:39.962Z,3.17
2023-02-25T06:22:08.138Z,2.80
2023-02-25T06:24:36.341Z,3.27
2023-02-25T06:27:04.704Z,2.43
2023-02-25T06:29:34.252Z,3.60
2023-02-25T06:32:02.519Z,2.73
2023-02-25T06:34:33.499Z,3.27
2023-02-25T06:37:01.924Z,2.83
2023-02-25T06:39:30.137Z,2.50
2023-02-25T06:41:58.474Z,3.17
2023-02-25T06:44:29.096Z,2.80
2023-02-25T06:46:58.643Z,2.90
2023-02-25T06:49:26.793Z,2.67
2023-02-25T06:51:54.949Z,2.63
2023-02-25T06:54:23.084Z,2.43
2023-02-25T06:56:53.230Z,3.20
2023-02-25T06:59:21.791Z,2.67
2023-02-25T07:01:49.955Z,3.10
2023-02-25T07:04:20.068Z,2.77
2023-02-25T07:06:48.417Z,3.03
2023-02-25T07:09:16.559Z,2.60
2023-02-25T07:11:44.727Z,2.60
2023-02-25T07:14:14.241Z,2.97
2023-02-25T07:16:42.404Z,3.67
2023-02-25T07:19:10.580Z,3.13
2023-02-25T07:21:40.595Z,3.03
2023-02-25T07:24:08.953Z,2.67
2023-02-25T07:26:38.212Z,3.17
2023-02-25T07:29:07.173Z,3.10
2023-02-25T07:31:35.457Z,2.60
2023-02-25T07:34:04.429Z,3.07
2023-02-25T07:36:33.418Z,3.30
2023-02-25T07:39:04.147Z,2.77
2023-02-25T07:41:32.321Z,3.90
2023-02-25T07:44:00.483Z,3.30
2023-02-25T07:46:28.927Z,2.80
2023-02-25T07:48:57.179Z,3.03
2023-02-25T07:51:26.479Z,2.77
2023-02-25T07:53:56.162Z,3.20
2023-02-25T07:56:26.645Z,2.07
2023-02-25T07:58:54.789Z,2.63
2023-02-25T08:01:24.610Z,2.40
2023-02-25T08:03:53.122Z,2.77
2023-02-25T08:06:22.390Z,2.90
2023-02-25T08:08:52.128Z,2.63
2023-02-25T08:11:21.004Z,3.30
2023-02-25T08:13:50.661Z,3.20
2023-02-25T08:16:23.076Z,3.27
2023-02-25T08:18:52.894Z,3.07
2023-02-25T08:21:23.410Z,3.20
2023-02-25T08:23:51.947Z,1.87
2023-02-25T08:26:22.390Z,3.30
2023-02-25T08:28:52.556Z,2.40
2023-02-25T08:31:21.218Z,2.40
2023-02-25T08:33:52.604Z,2.70
2023-02-25T08:36:21.960Z,3.37
2023-02-25T08:38:50.816Z,2.80
2023-02-25T08:41:19.397Z,2.60
2023-02-25T08:43:51.319Z,3.03
2023-02-25T08:46:21.381Z,2.90
2023-02-25T08:48:50.198Z,2.87
2023-02-25T08:51:18.577Z,3.17
2023-02-25T08:53:47.029Z,3.00
2023-02-25T08:56:16.997Z,3.13
2023-02-25T08:58:45.560Z,2.70
2023-02-25T09:01:14.843Z,3.20
2023-02-25T09:03:51.139Z,2.80
2023-02-25T09:06:19.339Z,2.50
2023-02-25T09:08:47.500Z,3.07
2023-02-25T09:11:15.721Z,3.47
2023-02-25T09:13:43.907Z,3.00
2023-02-25T09:16:15.721Z,2.87
2023-02-25T09:18:45.413Z,2.57
2023-02-25T09:21:13.752Z,2.50
2023-02-25T09:23:41.946Z,2.33
2023-02-25T09:26:10.184Z,2.77
2023-02-25T09:28:38.366Z,3.00
2023-02-25T09:31:06.985Z,2.73
2023-02-25T09:33:36.050Z,3.17
2023-02-25T09:36:09.574Z,2.43
2023-02-25T09:38:38.261Z,2.80
2023-02-25T09:41:14.444Z,2.60
2023-02-25T09:43:43.648Z,2.83
2023-02-25T09:46:14.457Z,2.97
2023-02-25T09:48:46.366Z,2.77
2023-02-25T09:51:20.477Z,2.60
2023-02-25T09:53:54.385Z,2.50
2023-02-25T09:56:23.613Z,2.40
2023-02-25T09:58:54.289Z,2.60
2023-02-25T10:01:27.584Z,3.20
2023-02-25T10:03:57.742Z,3.23
2023-02-25T10:06:30.632Z,2.33
2023-02-25T10:09:03.650Z,2.53
2023-02-25T10:11:39.657Z,2.77
2023-02-25T10:14:12.361Z,2.60
2023-02-25T10:16:44.671Z,2.40
2023-02-25T10:19:19.443Z,2.73
2023-02-25T10:21:56.277Z,2.10
2023-02-25T10:24:28.812Z,2.20
2023-02-25T10:26:59.399Z,2.87
2023-02-25T10:29:29.542Z,2.37
2023-02-25T10:32:00.000Z,2.50
2023-02-25T10:34:29.464Z,2.70
2023-02-25T10:36:59.862Z,2.37
2023-02-25T10:39:29.114Z,2.70
2023-02-25T10:41:57.272Z,3.07
2023-02-25T10:44:25.492Z,3.00
2023-02-25T10:46:55.981Z,2.73
2023-02-25T10:49:26.346Z,2.83
2023-02-25T10:52:03.911Z,2.57
2023-02-25T10:54:32.950Z,2.33
2023-02-25T10:57:02.241Z,2.70
2023-02-25T10:59:33.303Z,2.33
2023-02-25T11:02:02.212Z,2.10
2023-02-25T11:04:32.527Z,2.13
2023-02-25T11:07:00.774Z,2.47
2023-02-25T11:09:33.251Z,2.50
2023-02-25T11:12:02.423Z,2.40
2023-02-25T11:14:31.347Z,2.70
2023-02-25T11:17:05.590Z,2.37
2023-02-25T11:19:37.751Z,2.33
2023-02-25T11:22:09.530Z,2.70
2023-02-25T11:24:39.880Z,1.97
2023-02-25T11:27:09.593Z,2.60
2023-02-25T11:29:39.447Z,2.10
2023-02-25T11:32:12.259Z,2.80
2023-02-25T11:34:46.775Z,1.90
2023-02-25T11:40:22.936Z,1.97
2023-02-25T11:43:18.016Z,2.10
2023-02-25T11:45:50.922Z,2.30
2023-02-25T11:48:20.852Z,2.03
2023-02-25T11:50:52.230Z,2.47
2023-02-25T11:53:26.332Z,1.63
2023-02-25T11:56:01.977Z,2.20
2023-02-25T11:58:34.602Z,1.83
2023-02-25T12:01:05.077Z,2.07
2023-02-25T12:03:40.608Z,1.80
2023-02-25T12:06:15.615Z,1.60
2023-02-25T12:09:02.623Z,1.47
2023-02-25T12:11:45.542Z,1.60
2023-02-25T12:14:46.919Z,1.10
2023-02-25T12:17:27.030Z,1.00
2023-02-25T12:20:05.661Z,1.10
2023-02-25T12:22:57.862Z,1.20
2023-02-25T12:25:31.366Z,1.20
2023-02-25T12:28:06.890Z,1.20
2023-02-25T12:30:38.753Z,0.83
2023-02-25T12:33:11.880Z,1.20
2023-02-25T12:35:46.033Z,1.20
2023-02-25T12:38:34.035Z,1.00
2023-02-25T12:41:09.349Z,1.30
2023-02-25T12:43:45.489Z,1.10
2023-02-25T12:46:22.093Z,1.03
2023-02-25T12:49:02.734Z,1.00
2023-02-25T12:51:45.395Z,1.10
2023-02-25T12:54:21.883Z,1.00
2023-02-25T12:57:08.611Z,1.37
2023-02-25T13:00:07.470Z,1.20
2023-02-25T13:02:45.730Z,1.70
2023-02-25T13:05:23.450Z,1.40
2023-02-25T13:08:12.047Z,1.70
2023-02-25T13:10:48.189Z,1.50
2023-02-25T13:13:48.556Z,1.30
2023-02-25T13:16:28.953Z,1.30
2023-02-25T13:19:06.112Z,2.17
2023-02-25T13:21:41.512Z,1.60
2023-02-25T13:24:21.710Z,1.60
2023-02-25T13:27:01.101Z,1.80
2023-02-25T13:29:37.716Z,1.33
2023-02-25T13:32:16.038Z,1.53
2023-02-25T13:34:47.854Z,1.53
2023-02-25T13:37:26.394Z,1.50
2023-02-25T13:40:01.150Z,2.00
2023-02-25T13:42:35.457Z,1.60
2023-02-25T13:45:19.203Z,1.57
2023-02-25T13:47:57.918Z,1.73
2023-02-25T13:50:34.124Z,1.50
2023-02-25T13:53:14.914Z,1.60
2023-02-25T13:55:47.519Z,1.40
2023-02-25T13:58:30.481Z,1.37
2023-02-25T14:01:05.968Z,1.30
2023-02-25T14:03:53.415Z,1.60
2023-02-25T14:06:28.468Z,1.30
2023-02-25T14:09:04.930Z,1.30
2023-02-25T14:11:44.084Z,1.43
2023-02-25T14:14:26.257Z,1.30
2023-02-25T14:17:14.871Z,1.13
2023-02-25T14:19:48.937Z,1.30
2023-02-25T14:22:24.973Z,1.20
2023-02-25T14:24:58.309Z,1.20
2023-02-25T14:27:31.043Z,1.20
2023-02-25T14:30:04.557Z,1.50
2023-02-25T14:32:40.745Z,1.50
2023-02-25T14:35:16.881Z,1.60
2023-02-25T14:37:47.933Z,1.40
2023-02-25T14:40:26.777Z,1.57
2023-02-25T14:43:13.601Z,1.83
2023-02-25T14:45:44.527Z,2.20
2023-02-25T14:48:15.999Z,1.23
2023-02-25T14:50:48.486Z,1.40
2023-02-25T14:53:30.943Z,1.87
2023-02-25T14:56:17.023Z,1.17
2023-02-25T14:58:54.710Z,1.57
2023-02-25T15:01:34.041Z,1.63
2023-02-25T15:04:12.423Z,1.20
2023-02-25T15:06:50.871Z,1.50
2023-02-25T15:09:25.226Z,1.57
2023-02-25T15:12:02.933Z,1.80
2023-02-25T15:14:44.561Z,1.60
2023-02-25T15:17:22.091Z,1.50
2023-02-25T15:19:59.103Z,1.60
2023-02-25T15:22:30.206Z,1.40
2023-02-25T15:25:13.252Z,2.10
2023-02-25T15:27:46.940Z,2.10
2023-02-25T15:30:15.916Z,1.60
2023-02-25T15:32:57.700Z,2.07
2023-02-25T15:35:46.037Z,1.90
2023-02-25T15:38:20.218Z,1.90
2023-02-25T15:40:50.551Z,1.60
2023-02-25T15:43:48.648Z,1.63
2023-02-25T15:46:35.669Z,1.43
2023-02-25T15:49:05.796Z,1.67
2023-02-25T15:51:43.366Z,1.60
2023-02-25T15:54:13.230Z,1.47
2023-02-25T15:56:49.749Z,1.30
2023-02-25T15:59:39.047Z,2.23
2023-02-25T16:02:22.131Z,1.90
2023-02-25T16:04:50.468Z,2.53
2023-02-25T16:07:20.785Z,1.77
2023-02-25T16:09:54.703Z,2.30
2023-02-25T16:12:23.526Z,1.43
2023-02-25T16:14:52.091Z,1.50
2023-02-25T16:17:21.843Z,1.53
2023-02-25T16:19:53.375Z,1.33
2023-02-25T16:22:22.936Z,1.63
2023-02-25T16:24:53.344Z,1.40
2023-02-25T16:27:36.393Z,1.77
2023-02-25T16:30:08.431Z,1.70
2023-02-25T16:32:40.617Z,1.50
2023-02-25T16:35:10.519Z,1.20
2023-02-25T16:37:41.750Z,1.50
2023-02-25T16:40:16.210Z,1.97
2023-02-25T16:42:44.612Z,1.53
2023-02-25T16:45:23.229Z,1.57
2023-02-25T16:47:55.427Z,2.63
2023-02-25T16:50:25.039Z,1.80
2023-02-25T16:52:53.313Z,1.80
2023-02-25T16:55:24.348Z,1.70
2023-02-25T16:58:06.226Z,1.20
2023-02-25T17:00:34.652Z,1.30
2023-02-25T17:03:04.626Z,1.80
2023-02-25T17:05:34.616Z,1.60
2023-02-25T17:08:03.766Z,1.43
2023-02-25T17:10:34.932Z,1.53
2023-02-25T17:13:04.314Z,1.37
2023-02-25T17:15:33.799Z,1.10
2023-02-25T17:18:04.184Z,1.50
2023-02-25T17:20:32.516Z,1.13
2023-02-25T17:23:04.651Z,1.40
2023-02-25T17:25:37.673Z,1.40
2023-02-25T17:28:06.676Z,1.53
2023-02-25T17:30:35.917Z,1.10
2023-02-25T17:33:04.739Z,1.40
2023-02-25T17:35:33.539Z,1.53
2023-02-25T17:38:01.869Z,1.60
2023-02-25T17:40:30.814Z,1.60
2023-02-25T17:43:20.098Z,1.10
2023-02-25T17:45:50.911Z,1.63
2023-02-25T17:48:19.887Z,1.60
2023-02-25T17:50:52.958Z,1.60
2023-02-25T17:53:30.163Z,1.43
2023-02-25T17:55:58.599Z,1.30
2023-02-25T17:58:28.295Z,1.70
2023-02-25T18:01:01.746Z,1.73
2023-02-25T18:03:30.736Z,1.90
2023-02-25T18:06:00.155Z,1.70
2023-02-25T18:08:28.963Z,1.60
2023-02-25T18:10:58.558Z,1.67
2023-02-25T18:13:31.008Z,1.60
2023-02-25T18:16:14.602Z,1.70
2023-02-25T18:18:42.774Z,1.87
2023-02-25T18:21:11.716Z,1.60
2023-02-25T18:23:39.921Z,1.60
2023-02-25T18:26:18.662Z,1.43
2023-02-25T18:28:48.433Z,1.70
2023-02-25T18:31:18.339Z,1.93
2023-02-25T18:33:47.197Z,1.97
2023-02-25T18:36:20.342Z,2.13
2023-02-25T18:38:48.508Z,1.63
2023-02-25T18:41:17.191Z,1.80
2023-02-25T18:43:45.338Z,1.80
2023-02-25T18:46:15.568Z,1.43
2023-02-25T18:48:43.793Z,1.70
2023-02-25T18:51:14.403Z,1.97
2023-02-25T18:53:43.388Z,1.90
2023-02-25T18:56:12.015Z,1.60
2023-02-25T18:58:40.155Z,1.67
2023-02-25T19:01:08.508Z,1.77
2023-02-25T19:03:39.185Z,2.50
2023-02-25T19:06:07.631Z,1.70
2023-02-25T19:08:35.855Z,1.60
2023-02-25T19:11:04.005Z,1.87
2023-02-25T19:13:35.418Z,1.90
2023-02-25T19:16:03.986Z,2.30
2023-02-25T19:18:32.214Z,2.37
2023-02-25T19:21:01.898Z,2.10
2023-02-25T19:23:30.083Z,2.03
2023-02-25T19:25:59.825Z,2.17
2023-02-25T19:28:27.971Z,2.40
2023-02-25T19:30:56.138Z,1.90
2023-02-25T19:33:24.446Z,1.97
2023-02-25T19:35:52.620Z,1.70
2023-02-25T19:38:22.309Z,2.00
2023-02-25T19:40:51.057Z,2.10
2023-02-25T19:43:19.670Z,2.10
2023-02-25T19:45:50.326Z,2.33
2023-02-25T19:48:18.542Z,2.20
2023-02-25T19:50:46.818Z,2.23
2023-02-25T19:53:14.977Z,2.33
2023-02-25T19:55:45.325Z,2.13
2023-02-25T19:58:13.521Z,2.10
2023-02-25T20:00:45.856Z,1.70
2023-02-25T20:03:15.268Z,1.93
2023-02-25T20:05:44.619Z,2.00
2023-02-25T20:08:12.779Z,1.67
2023-02-25T20:10:43.060Z,2.23
2023-02-25T20:13:12.669Z,1.80
2023-02-25T20:15:40.829Z,2.13
2023-02-25T20:18:09.005Z,2.30
2023-02-25T20:20:37.389Z,1.60
2023-02-25T20:23:05.560Z,2.17
2023-02-25T20:25:33.684Z,2.10
2023-02-25T20:28:01.860Z,2.00
2023-02-25T20:30:31.365Z,2.10
2023-02-25T20:32:59.802Z,2.20
2023-02-25T20:35:28.305Z,2.30
2023-02-25T20:38:06.209Z,1.90
2023-02-25T20:40:34.418Z,2.23
2023-02-25T20:43:02.692Z,2.50
2023-02-25T20:45:32.822Z,2.30
2023-02-25T20:48:01.539Z,2.20
2023-02-25T20:50:30.396Z,2.50
2023-02-25T20:52:58.756Z,2.40
2023-02-25T20:55:26.932Z,2.17
2023-02-25T20:57:55.301Z,2.77
2023-02-25T21:00:23.529Z,2.63
2023-02-25T21:02:53.049Z,2.60
2023-02-25T21:05:21.181Z,2.33
2023-02-25T21:07:50.952Z,2.30
2023-02-25T21:10:19.499Z,2.43
2023-02-25T21:12:47.705Z,2.20
2023-02-25T21:15:15.919Z,2.40
2023-02-25T21:17:44.119Z,2.30
2023-02-25T21:20:14.048Z,2.50
2023-02-25T21:22:42.198Z,2.90
2023-02-25T21:25:10.556Z,2.57
2023-02-25T21:27:38.726Z,2.30
2023-02-25T21:30:07.451Z,2.20
2023-02-25T21:32:35.623Z,2.20
2023-02-25T21:35:04.095Z,2.73
2023-02-25T21:37:33.620Z,2.07
2023-02-25T21:40:01.757Z,2.00
2023-02-25T21:42:30.216Z,2.20
2023-02-25T21:44:58.494Z,2.13
2023-02-25T21:47:26.656Z,1.90
2023-02-25T21:49:55.183Z,2.00
2023-02-25T21:52:23.456Z,2.40
2023-02-25T21:54:53.947Z,2.27
2023-02-25T21:57:22.290Z,2.03
2023-02-25T21:59:52.532Z,2.27
2023-02-25T22:02:20.841Z,2.53
2023-02-25T22:04:49.017Z,2.10
2023-02-25T22:07:17.888Z,2.13
2023-02-25T22:09:46.042Z,2.37
2023-02-25T22:12:15.533Z,2.10
2023-02-25T22:14:43.695Z,2.33
2023-02-25T22:17:12.524Z,2.33
2023-02-25T22:19:42.598Z,2.47
2023-02-25T22:22:10.926Z,2.93
2023-02-25T22:24:39.079Z,2.20
2023-02-25T22:27:07.542Z,2.43
2023-02-25T22:29:37.049Z,2.33
2023-02-25T22:32:05.327Z,2.20
2023-02-25T22:34:34.571Z,2.33
2023-02-25T22:37:02.791Z,2.40
2023-02-25T22:39:30.953Z,2.00
2023-02-25T22:41:59.132Z,2.13
2023-02-25T22:44:27.294Z,2.77
2023-02-25T22:46:56.863Z,2.57
2023-02-25T22:49:25.153Z,2.53
2023-02-25T22:51:53.513Z,2.30
2023-02-25T22:54:21.823Z,2.10
2023-02-25T22:56:50.653Z,2.73
2023-02-25T22:59:18.899Z,2.67
2023-02-25T23:01:47.107Z,2.10
2023-02-25T23:04:16.766Z,2.70
2023-02-25T23:06:45.701Z,2.37
2023-02-25T23:09:14.469Z,2.10
2023-02-25T23:11:43.357Z,2.00
2023-02-25T23:14:12.183Z,2.23
2023-02-25T23:16:41.464Z,2.77
2023-02-25T23:19:10.564Z,2.83
2023-02-25T23:21:40.105Z,3.27
2023-02-25T23:24:09.218Z,2.90
2023-02-25T23:26:39.651Z,2.30
2023-02-25T23:29:09.005Z,2.30
2023-02-25T23:31:38.064Z,1.83
2023-02-25T23:34:08.788Z,1.90
2023-02-25T23:36:37.256Z,2.23
2023-02-25T23:39:07.536Z,2.20
2023-02-25T23:41:36.385Z,2.13
2023-02-25T23:44:05.277Z,2.20
2023-02-25T23:46:33.925Z,2.23
2023-02-25T23:49:03.087Z,2.27
2023-02-25T23:51:31.462Z,2.30
2023-02-25T23:54:00.249Z,2.20
2023-02-25T23:56:30.967Z,1.97
2023-02-25T23:58:59.700Z,2.10
